sensor_id;sensor_type;location;lat;lon;timestamp;P1;durP1;ratioP1;P2;durP2;ratioP2
27804;SDS011;15183;51.350;11.102;2023-05-16T00:00:55;3.97;;;3.67;;
27804;SDS011;15183;51.350;11.102;2023-05-16T00:03:23;5.57;;;4.57;;
27804;SDS011;15183;51.350;11.102;2023-05-16T00:05:49;3.75;;;3.45;;
27804;SDS011;15183;51.350;11.102;2023-05-16T00:08:16;5.45;;;3.20;;
27804;SDS011;15183;51.350;11.102;2023-05-16T00:10:43;7.03;;;3.63;;
27804;SDS011;15183;51.350;11.102;2023-05-16T00:13:09;4.20;;;3.78;;
27804;SDS011;15183;51.350;11.102;2023-05-16T00:15:36;4.63;;;3.08;;
27804;SDS011;15183;51.350;11.102;2023-05-16T00:18:03;4.93;;;3.63;;
27804;SDS011;15183;51.350;11.102;2023-05-16T00:20:30;4.93;;;3.35;;
27804;SDS011;15183;51.350;11.102;2023-05-16T00:22:56;5.72;;;3.95;;
27804;SDS011;15183;51.350;11.102;2023-05-16T00:25:25;5.53;;;3.70;;
27804;SDS011;15183;51.350;11.102;2023-05-16T00:27:53;4.28;;;3.40;;
27804;SDS011;15183;51.350;11.102;2023-05-16T00:30:19;6.28;;;4.22;;
27804;SDS011;15183;51.350;11.102;2023-05-16T00:32:47;10.93;;;4.80;;
27804;SDS011;15183;51.350;11.102;2023-05-16T00:35:13;5.47;;;4.90;;
27804;SDS011;15183;51.350;11.102;2023-05-16T00:37:40;15.50;;;5.90;;
27804;SDS011;15183;51.350;11.102;2023-05-16T00:40:06;6.00;;;5.00;;
27804;SDS011;15183;51.350;11.102;2023-05-16T00:42:33;10.40;;;5.88;;
27804;SDS011;15183;51.350;11.102;2023-05-16T00:45:00;7.10;;;5.95;;
27804;SDS011;15183;51.350;11.102;2023-05-16T00:47:26;6.85;;;5.78;;
27804;SDS011;15183;51.350;11.102;2023-05-16T00:49:52;7.95;;;6.47;;
27804;SDS011;15183;51.350;11.102;2023-05-16T00:52:19;8.05;;;6.72;;
27804;SDS011;15183;51.350;11.102;2023-05-16T00:54:46;6.75;;;5.75;;
27804;SDS011;15183;51.350;11.102;2023-05-16T00:57:12;7.07;;;6.25;;
27804;SDS011;15183;51.350;11.102;2023-05-16T00:59:39;7.35;;;5.63;;
27804;SDS011;15183;51.350;11.102;2023-05-16T01:02:07;7.50;;;6.22;;
27804;SDS011;15183;51.350;11.102;2023-05-16T01:04:34;8.13;;;6.88;;
27804;SDS011;15183;51.350;11.102;2023-05-16T01:07:01;9.05;;;7.78;;
27804;SDS011;15183;51.350;11.102;2023-05-16T01:09:27;9.18;;;7.88;;
27804;SDS011;15183;51.350;11.102;2023-05-16T01:15:14;9.35;;;8.38;;
27804;SDS011;15183;51.350;11.102;2023-05-16T01:20:41;10.88;;;8.40;;
27804;SDS011;15183;51.350;11.102;2023-05-16T01:23:33;10.40;;;9.35;;
27804;SDS011;15183;51.350;11.102;2023-05-16T01:26:22;12.33;;;10.13;;
27804;SDS011;15183;51.350;11.102;2023-05-16T01:28:53;10.65;;;9.55;;
27804;SDS011;15183;51.350;11.102;2023-05-16T01:31:20;12.10;;;10.35;;
27804;SDS011;15183;51.350;11.102;2023-05-16T01:33:48;11.60;;;10.27;;
27804;SDS011;15183;51.350;11.102;2023-05-16T01:41:34;12.40;;;9.55;;
27804;SDS011;15183;51.350;11.102;2023-05-16T01:44:32;11.18;;;9.40;;
27804;SDS011;15183;51.350;11.102;2023-05-16T01:47:15;14.18;;;9.05;;
27804;SDS011;15183;51.350;11.102;2023-05-16T01:49:53;11.57;;;9.82;;
27804;SDS011;15183;51.350;11.102;2023-05-16T01:53:15;11.80;;;9.45;;
27804;SDS011;15183;51.350;11.102;2023-05-16T01:55:32;9.38;;;8.25;;
27804;SDS011;15183;51.350;11.102;2023-05-16T01:58:10;11.68;;;8.77;;
27804;SDS011;15183;51.350;11.102;2023-05-16T02:00:39;9.45;;;8.55;;
27804;SDS011;15183;51.350;11.102;2023-05-16T02:03:06;9.15;;;8.20;;
27804;SDS011;15183;51.350;11.102;2023-05-16T02:05:33;10.40;;;9.02;;
27804;SDS011;15183;51.350;11.102;2023-05-16T02:08:00;10.82;;;8.63;;
27804;SDS011;15183;51.350;11.102;2023-05-16T02:10:26;9.00;;;7.20;;
27804;SDS011;15183;51.350;11.102;2023-05-16T02:12:53;8.70;;;7.80;;
27804;SDS011;15183;51.350;11.102;2023-05-16T02:15:19;9.68;;;7.97;;
27804;SDS011;15183;51.350;11.102;2023-05-16T02:17:46;9.07;;;7.68;;
27804;SDS011;15183;51.350;11.102;2023-05-16T02:20:12;9.52;;;7.65;;
27804;SDS011;15183;51.350;11.102;2023-05-16T02:22:39;8.88;;;7.97;;
27804;SDS011;15183;51.350;11.102;2023-05-16T02:25:07;9.52;;;8.52;;
27804;SDS011;15183;51.350;11.102;2023-05-16T02:27:34;11.52;;;8.02;;
27804;SDS011;15183;51.350;11.102;2023-05-16T02:30:01;8.60;;;7.57;;
27804;SDS011;15183;51.350;11.102;2023-05-16T02:32:27;9.25;;;7.70;;
27804;SDS011;15183;51.350;11.102;2023-05-16T02:34:53;9.30;;;8.32;;
27804;SDS011;15183;51.350;11.102;2023-05-16T02:37:20;9.15;;;8.13;;
27804;SDS011;15183;51.350;11.102;2023-05-16T02:39:46;10.70;;;8.32;;
27804;SDS011;15183;51.350;11.102;2023-05-16T02:42:13;9.20;;;8.05;;
27804;SDS011;15183;51.350;11.102;2023-05-16T02:44:39;8.35;;;7.53;;
27804;SDS011;15183;51.350;11.102;2023-05-16T02:47:06;10.82;;;7.53;;
27804;SDS011;15183;51.350;11.102;2023-05-16T02:49:32;9.38;;;7.97;;
27804;SDS011;15183;51.350;11.102;2023-05-16T02:51:59;9.10;;;7.40;;
27804;SDS011;15183;51.350;11.102;2023-05-16T02:54:25;10.23;;;7.72;;
27804;SDS011;15183;51.350;11.102;2023-05-16T02:56:51;8.40;;;7.05;;
27804;SDS011;15183;51.350;11.102;2023-05-16T02:59:18;7.82;;;6.88;;
27804;SDS011;15183;51.350;11.102;2023-05-16T03:01:45;6.97;;;6.15;;
27804;SDS011;15183;51.350;11.102;2023-05-16T03:04:11;9.40;;;7.60;;
27804;SDS011;15183;51.350;11.102;2023-05-16T03:06:37;8.90;;;7.05;;
27804;SDS011;15183;51.350;11.102;2023-05-16T03:09:04;8.60;;;7.07;;
27804;SDS011;15183;51.350;11.102;2023-05-16T03:11:30;7.78;;;6.97;;
27804;SDS011;15183;51.350;11.102;2023-05-16T03:13:57;7.18;;;6.22;;
27804;SDS011;15183;51.350;11.102;2023-05-16T03:16:24;8.30;;;7.00;;
27804;SDS011;15183;51.350;11.102;2023-05-16T03:18:51;11.15;;;7.32;;
27804;SDS011;15183;51.350;11.102;2023-05-16T03:21:17;7.22;;;6.22;;
27804;SDS011;15183;51.350;11.102;2023-05-16T03:23:44;7.28;;;6.22;;
27804;SDS011;15183;51.350;11.102;2023-05-16T03:26:10;7.18;;;6.15;;
27804;SDS011;15183;51.350;11.102;2023-05-16T03:28:36;8.35;;;6.53;;
27804;SDS011;15183;51.350;11.102;2023-05-16T03:31:03;12.02;;;6.57;;
27804;SDS011;15183;51.350;11.102;2023-05-16T03:33:29;6.30;;;5.70;;
27804;SDS011;15183;51.350;11.102;2023-05-16T03:35:55;6.75;;;6.05;;
27804;SDS011;15183;51.350;11.102;2023-05-16T03:38:22;9.30;;;6.15;;
27804;SDS011;15183;51.350;11.102;2023-05-16T03:40:49;7.40;;;6.40;;
27804;SDS011;15183;51.350;11.102;2023-05-16T03:43:15;7.72;;;6.20;;
27804;SDS011;15183;51.350;11.102;2023-05-16T03:45:42;8.48;;;6.13;;
27804;SDS011;15183;51.350;11.102;2023-05-16T03:48:08;7.40;;;6.00;;
27804;SDS011;15183;51.350;11.102;2023-05-16T03:50:35;9.18;;;6.15;;
27804;SDS011;15183;51.350;11.102;2023-05-16T03:53:02;7.25;;;6.25;;
27804;SDS011;15183;51.350;11.102;2023-05-16T03:55:29;6.45;;;5.60;;
27804;SDS011;15183;51.350;11.102;2023-05-16T03:57:55;6.63;;;5.68;;
27804;SDS011;15183;51.350;11.102;2023-05-16T04:00:22;7.90;;;5.68;;
27804;SDS011;15183;51.350;11.102;2023-05-16T04:02:48;8.00;;;5.40;;
27804;SDS011;15183;51.350;11.102;2023-05-16T04:05:15;6.45;;;5.78;;
27804;SDS011;15183;51.350;11.102;2023-05-16T04:07:41;6.78;;;5.60;;
27804;SDS011;15183;51.350;11.102;2023-05-16T04:10:08;6.35;;;5.47;;
27804;SDS011;15183;51.350;11.102;2023-05-16T04:12:35;5.32;;;4.82;;
27804;SDS011;15183;51.350;11.102;2023-05-16T04:15:05;6.63;;;5.30;;
27804;SDS011;15183;51.350;11.102;2023-05-16T04:17:32;5.95;;;5.25;;
27804;SDS011;15183;51.350;11.102;2023-05-16T04:19:59;8.18;;;5.95;;
27804;SDS011;15183;51.350;11.102;2023-05-16T04:22:25;7.93;;;5.68;;
27804;SDS011;15183;51.350;11.102;2023-05-16T04:24:52;7.68;;;5.25;;
27804;SDS011;15183;51.350;11.102;2023-05-16T04:27:18;6.53;;;5.13;;
27804;SDS011;15183;51.350;11.102;2023-05-16T04:29:45;9.82;;;5.40;;
27804;SDS011;15183;51.350;11.102;2023-05-16T04:32:11;6.93;;;5.60;;
27804;SDS011;15183;51.350;11.102;2023-05-16T04:34:37;7.45;;;5.60;;
27804;SDS011;15183;51.350;11.102;2023-05-16T04:37:04;8.75;;;6.15;;
27804;SDS011;15183;51.350;11.102;2023-05-16T04:39:32;7.68;;;5.57;;
27804;SDS011;15183;51.350;11.102;2023-05-16T04:42:00;5.88;;;4.78;;
27804;SDS011;15183;51.350;11.102;2023-05-16T04:44:27;7.15;;;5.35;;
27804;SDS011;15183;51.350;11.102;2023-05-16T04:46:54;7.43;;;5.43;;
27804;SDS011;15183;51.350;11.102;2023-05-16T04:49:20;5.80;;;5.25;;
27804;SDS011;15183;51.350;11.102;2023-05-16T04:51:47;5.38;;;4.88;;
27804;SDS011;15183;51.350;11.102;2023-05-16T04:54:14;11.25;;;5.38;;
27804;SDS011;15183;51.350;11.102;2023-05-16T04:56:40;6.82;;;5.47;;
27804;SDS011;15183;51.350;11.102;2023-05-16T04:59:07;6.80;;;5.18;;
27804;SDS011;15183;51.350;11.102;2023-05-16T05:01:33;8.95;;;5.75;;
27804;SDS011;15183;51.350;11.102;2023-05-16T05:03:59;7.57;;;5.63;;
27804;SDS011;15183;51.350;11.102;2023-05-16T05:06:26;6.30;;;5.05;;
27804;SDS011;15183;51.350;11.102;2023-05-16T05:08:52;8.00;;;4.68;;
27804;SDS011;15183;51.350;11.102;2023-05-16T05:11:19;5.85;;;5.25;;
27804;SDS011;15183;51.350;11.102;2023-05-16T05:13:46;4.90;;;4.47;;
27804;SDS011;15183;51.350;11.102;2023-05-16T05:16:12;6.25;;;5.10;;
27804;SDS011;15183;51.350;11.102;2023-05-16T05:18:38;7.25;;;5.00;;
27804;SDS011;15183;51.350;11.102;2023-05-16T05:21:05;6.28;;;4.60;;
27804;SDS011;15183;51.350;11.102;2023-05-16T05:23:31;5.03;;;4.43;;
27804;SDS011;15183;51.350;11.102;2023-05-16T05:25:59;5.70;;;4.80;;
27804;SDS011;15183;51.350;11.102;2023-05-16T05:28:26;9.75;;;6.15;;
27804;SDS011;15183;51.350;11.102;2023-05-16T05:30:53;7.85;;;5.72;;
27804;SDS011;15183;51.350;11.102;2023-05-16T05:33:22;6.40;;;5.35;;
27804;SDS011;15183;51.350;11.102;2023-05-16T05:35:53;10.80;;;7.68;;
27804;SDS011;15183;51.350;11.102;2023-05-16T05:38:20;8.38;;;6.07;;
27804;SDS011;15183;51.350;11.102;2023-05-16T05:40:46;6.00;;;5.00;;
27804;SDS011;15183;51.350;11.102;2023-05-16T05:43:14;5.65;;;4.55;;
27804;SDS011;15183;51.350;11.102;2023-05-16T05:45:40;8.10;;;6.20;;
27804;SDS011;15183;51.350;11.102;2023-05-16T05:48:07;6.80;;;5.13;;
27804;SDS011;15183;51.350;11.102;2023-05-16T05:50:35;5.70;;;4.75;;
27804;SDS011;15183;51.350;11.102;2023-05-16T05:53:02;6.45;;;5.20;;
27804;SDS011;15183;51.350;11.102;2023-05-16T05:55:29;9.25;;;5.60;;
27804;SDS011;15183;51.350;11.102;2023-05-16T05:57:55;8.55;;;6.25;;
27804;SDS011;15183;51.350;11.102;2023-05-16T06:00:21;9.95;;;6.80;;
27804;SDS011;15183;51.350;11.102;2023-05-16T06:02:48;8.40;;;6.13;;
27804;SDS011;15183;51.350;11.102;2023-05-16T06:05:14;11.90;;;7.72;;
27804;SDS011;15183;51.350;11.102;2023-05-16T06:07:41;9.43;;;6.97;;
27804;SDS011;15183;51.350;11.102;2023-05-16T06:10:07;9.02;;;6.53;;
27804;SDS011;15183;51.350;11.102;2023-05-16T06:12:33;7.22;;;6.10;;
27804;SDS011;15183;51.350;11.102;2023-05-16T06:15:00;9.82;;;7.95;;
27804;SDS011;15183;51.350;11.102;2023-05-16T06:17:26;11.35;;;7.47;;
27804;SDS011;15183;51.350;11.102;2023-05-16T06:19:53;10.27;;;7.30;;
27804;SDS011;15183;51.350;11.102;2023-05-16T06:22:19;15.93;;;10.18;;
27804;SDS011;15183;51.350;11.102;2023-05-16T06:24:46;14.30;;;9.38;;
27804;SDS011;15183;51.350;11.102;2023-05-16T06:27:12;13.75;;;9.43;;
27804;SDS011;15183;51.350;11.102;2023-05-16T06:29:38;13.23;;;9.30;;
27804;SDS011;15183;51.350;11.102;2023-05-16T06:32:05;6.78;;;5.30;;
27804;SDS011;15183;51.350;11.102;2023-05-16T06:34:31;10.73;;;7.70;;
27804;SDS011;15183;51.350;11.102;2023-05-16T06:36:58;17.52;;;10.85;;
27804;SDS011;15183;51.350;11.102;2023-05-16T06:39:24;11.50;;;7.45;;
27804;SDS011;15183;51.350;11.102;2023-05-16T06:41:51;8.40;;;5.68;;
27804;SDS011;15183;51.350;11.102;2023-05-16T06:44:18;5.40;;;3.17;;
27804;SDS011;15183;51.350;11.102;2023-05-16T06:46:44;8.63;;;5.35;;
27804;SDS011;15183;51.350;11.102;2023-05-16T06:49:10;4.93;;;4.20;;
27804;SDS011;15183;51.350;11.102;2023-05-16T06:51:37;9.52;;;6.55;;
27804;SDS011;15183;51.350;11.102;2023-05-16T06:54:03;3.72;;;3.05;;
27804;SDS011;15183;51.350;11.102;2023-05-16T06:56:30;8.48;;;5.30;;
27804;SDS011;15183;51.350;11.102;2023-05-16T06:58:57;5.25;;;4.38;;
27804;SDS011;15183;51.350;11.102;2023-05-16T07:01:26;4.40;;;3.53;;
27804;SDS011;15183;51.350;11.102;2023-05-16T07:03:52;6.43;;;3.83;;
27804;SDS011;15183;51.350;11.102;2023-05-16T07:06:20;8.18;;;5.85;;
27804;SDS011;15183;51.350;11.102;2023-05-16T07:08:46;5.05;;;3.50;;
27804;SDS011;15183;51.350;11.102;2023-05-16T07:11:12;5.03;;;3.38;;
27804;SDS011;15183;51.350;11.102;2023-05-16T07:13:39;4.15;;;3.05;;
27804;SDS011;15183;51.350;11.102;2023-05-16T07:16:05;3.25;;;2.65;;
27804;SDS011;15183;51.350;11.102;2023-05-16T07:18:33;3.67;;;3.00;;
27804;SDS011;15183;51.350;11.102;2023-05-16T07:20:59;4.90;;;3.25;;
27804;SDS011;15183;51.350;11.102;2023-05-16T07:23:25;7.55;;;5.18;;
27804;SDS011;15183;51.350;11.102;2023-05-16T07:25:52;6.43;;;3.08;;
27804;SDS011;15183;51.350;11.102;2023-05-16T07:28:18;8.20;;;6.10;;
27804;SDS011;15183;51.350;11.102;2023-05-16T07:30:46;6.40;;;3.22;;
27804;SDS011;15183;51.350;11.102;2023-05-16T07:33:13;5.00;;;4.18;;
27804;SDS011;15183;51.350;11.102;2023-05-16T07:35:39;3.38;;;3.00;;
27804;SDS011;15183;51.350;11.102;2023-05-16T07:38:06;4.20;;;2.55;;
27804;SDS011;15183;51.350;11.102;2023-05-16T07:40:32;7.20;;;4.70;;
27804;SDS011;15183;51.350;11.102;2023-05-16T07:42:58;10.88;;;6.60;;
27804;SDS011;15183;51.350;11.102;2023-05-16T07:45:25;9.90;;;6.82;;
27804;SDS011;15183;51.350;11.102;2023-05-16T07:47:51;3.72;;;3.15;;
27804;SDS011;15183;51.350;11.102;2023-05-16T07:50:18;7.90;;;6.05;;
27804;SDS011;15183;51.350;11.102;2023-05-16T07:52:44;2.97;;;2.60;;
27804;SDS011;15183;51.350;11.102;2023-05-16T07:55:11;5.20;;;4.47;;
27804;SDS011;15183;51.350;11.102;2023-05-16T07:57:38;1.45;;;1.30;;
27804;SDS011;15183;51.350;11.102;2023-05-16T08:00:04;2.40;;;1.58;;
27804;SDS011;15183;51.350;11.102;2023-05-16T08:02:32;2.80;;;2.10;;
27804;SDS011;15183;51.350;11.102;2023-05-16T08:04:59;4.07;;;2.63;;
27804;SDS011;15183;51.350;11.102;2023-05-16T08:07:26;5.68;;;2.65;;
27804;SDS011;15183;51.350;11.102;2023-05-16T08:09:52;7.85;;;4.63;;
27804;SDS011;15183;51.350;11.102;2023-05-16T08:12:19;5.22;;;3.80;;
27804;SDS011;15183;51.350;11.102;2023-05-16T08:18:24;3.63;;;0.93;;
27804;SDS011;15183;51.350;11.102;2023-05-16T08:20:50;6.38;;;2.78;;
27804;SDS011;15183;51.350;11.102;2023-05-16T08:23:17;8.32;;;5.65;;
27804;SDS011;15183;51.350;11.102;2023-05-16T08:25:43;4.88;;;2.50;;
27804;SDS011;15183;51.350;11.102;2023-05-16T08:28:10;9.05;;;5.13;;
27804;SDS011;15183;51.350;11.102;2023-05-16T08:30:36;3.90;;;2.45;;
27804;SDS011;15183;51.350;11.102;2023-05-16T08:33:04;6.53;;;4.35;;
27804;SDS011;15183;51.350;11.102;2023-05-16T08:35:31;2.28;;;1.88;;
27804;SDS011;15183;51.350;11.102;2023-05-16T08:38:00;2.40;;;1.27;;
27804;SDS011;15183;51.350;11.102;2023-05-16T08:40:27;7.45;;;4.93;;
27804;SDS011;15183;51.350;11.102;2023-05-16T08:42:54;4.60;;;2.95;;
27804;SDS011;15183;51.350;11.102;2023-05-16T08:45:21;12.35;;;7.80;;
27804;SDS011;15183;51.350;11.102;2023-05-16T08:47:48;10.43;;;6.40;;
27804;SDS011;15183;51.350;11.102;2023-05-16T08:50:18;3.30;;;2.33;;
27804;SDS011;15183;51.350;11.102;2023-05-16T08:52:46;4.00;;;2.80;;
27804;SDS011;15183;51.350;11.102;2023-05-16T08:55:15;2.90;;;1.42;;
27804;SDS011;15183;51.350;11.102;2023-05-16T08:57:43;7.30;;;4.93;;
27804;SDS011;15183;51.350;11.102;2023-05-16T09:00:11;3.40;;;1.77;;
27804;SDS011;15183;51.350;11.102;2023-05-16T09:02:38;1.58;;;1.20;;
27804;SDS011;15183;51.350;11.102;2023-05-16T09:05:07;2.70;;;0.90;;
27804;SDS011;15183;51.350;11.102;2023-05-16T09:07:39;2.28;;;1.30;;
27804;SDS011;15183;51.350;11.102;2023-05-16T09:10:07;2.65;;;0.98;;
27804;SDS011;15183;51.350;11.102;2023-05-16T09:12:35;5.07;;;2.63;;
27804;SDS011;15183;51.350;11.102;2023-05-16T09:15:02;2.50;;;1.27;;
27804;SDS011;15183;51.350;11.102;2023-05-16T09:17:34;6.13;;;1.65;;
27804;SDS011;15183;51.350;11.102;2023-05-16T09:20:07;5.35;;;1.50;;
27804;SDS011;15183;51.350;11.102;2023-05-16T09:22:52;3.90;;;2.03;;
27804;SDS011;15183;51.350;11.102;2023-05-16T09:25:25;5.82;;;1.20;;
27804;SDS011;15183;51.350;11.102;2023-05-16T09:27:56;4.90;;;1.77;;
27804;SDS011;15183;51.350;11.102;2023-05-16T09:30:31;3.75;;;1.02;;
27804;SDS011;15183;51.350;11.102;2023-05-16T09:32:58;3.13;;;1.85;;
27804;SDS011;15183;51.350;11.102;2023-05-16T09:35:25;4.32;;;2.08;;
27804;SDS011;15183;51.350;11.102;2023-05-16T09:37:53;5.40;;;1.70;;
27804;SDS011;15183;51.350;11.102;2023-05-16T09:40:20;3.83;;;1.80;;
27804;SDS011;15183;51.350;11.102;2023-05-16T09:43:01;2.45;;;1.17;;
27804;SDS011;15183;51.350;11.102;2023-05-16T09:45:30;2.92;;;1.10;;
27804;SDS011;15183;51.350;11.102;2023-05-16T09:48:06;6.07;;;2.42;;
27804;SDS011;15183;51.350;11.102;2023-05-16T09:50:35;4.93;;;1.98;;
27804;SDS011;15183;51.350;11.102;2023-05-16T09:53:02;2.45;;;1.20;;
27804;SDS011;15183;51.350;11.102;2023-05-16T09:55:29;3.60;;;1.17;;
27804;SDS011;15183;51.350;11.102;2023-05-16T09:57:57;3.25;;;1.67;;
27804;SDS011;15183;51.350;11.102;2023-05-16T10:00:30;3.97;;;2.00;;
27804;SDS011;15183;51.350;11.102;2023-05-16T10:02:59;4.90;;;1.85;;
27804;SDS011;15183;51.350;11.102;2023-05-16T10:05:30;7.72;;;3.42;;
27804;SDS011;15183;51.350;11.102;2023-05-16T10:07:57;5.70;;;2.17;;
27804;SDS011;15183;51.350;11.102;2023-05-16T10:13:27;6.78;;;3.25;;
27804;SDS011;15183;51.350;11.102;2023-05-16T10:15:56;10.27;;;4.40;;
27804;SDS011;15183;51.350;11.102;2023-05-16T10:18:27;8.95;;;1.90;;
27804;SDS011;15183;51.350;11.102;2023-05-16T10:20:56;6.35;;;2.03;;
27804;SDS011;15183;51.350;11.102;2023-05-16T10:23:41;5.32;;;1.98;;
27804;SDS011;15183;51.350;11.102;2023-05-16T10:26:09;10.38;;;3.08;;
27804;SDS011;15183;51.350;11.102;2023-05-16T10:28:38;6.18;;;1.40;;
27804;SDS011;15183;51.350;11.102;2023-05-16T10:31:05;6.82;;;2.10;;
27804;SDS011;15183;51.350;11.102;2023-05-16T10:33:34;6.50;;;1.77;;
27804;SDS011;15183;51.350;11.102;2023-05-16T10:36:01;6.68;;;2.53;;
27804;SDS011;15183;51.350;11.102;2023-05-16T10:38:29;8.27;;;2.75;;
27804;SDS011;15183;51.350;11.102;2023-05-16T10:40:56;8.50;;;2.05;;
27804;SDS011;15183;51.350;11.102;2023-05-16T10:43:24;8.40;;;1.73;;
27804;SDS011;15183;51.350;11.102;2023-05-16T10:45:53;7.60;;;2.40;;
27804;SDS011;15183;51.350;11.102;2023-05-16T10:48:31;7.47;;;1.70;;
27804;SDS011;15183;51.350;11.102;2023-05-16T10:51:04;6.55;;;1.67;;
27804;SDS011;15183;51.350;11.102;2023-05-16T10:54:09;8.75;;;2.17;;
27804;SDS011;15183;51.350;11.102;2023-05-16T10:56:38;8.98;;;2.67;;
27804;SDS011;15183;51.350;11.102;2023-05-16T10:59:20;6.32;;;2.05;;
27804;SDS011;15183;51.350;11.102;2023-05-16T11:01:53;4.40;;;1.90;;
27804;SDS011;15183;51.350;11.102;2023-05-16T11:04:21;5.60;;;2.10;;
27804;SDS011;15183;51.350;11.102;2023-05-16T11:06:51;4.30;;;1.45;;
27804;SDS011;15183;51.350;11.102;2023-05-16T11:09:22;5.72;;;1.92;;
27804;SDS011;15183;51.350;11.102;2023-05-16T11:14:25;7.50;;;2.20;;
27804;SDS011;15183;51.350;11.102;2023-05-16T11:16:58;6.75;;;1.95;;
27804;SDS011;15183;51.350;11.102;2023-05-16T11:19:38;5.57;;;1.08;;
27804;SDS011;15183;51.350;11.102;2023-05-16T11:22:12;4.25;;;1.67;;
27804;SDS011;15183;51.350;11.102;2023-05-16T11:27:35;6.68;;;1.85;;
27804;SDS011;15183;51.350;11.102;2023-05-16T11:32:35;5.82;;;1.83;;
27804;SDS011;15183;51.350;11.102;2023-05-16T11:35:04;8.55;;;2.85;;
27804;SDS011;15183;51.350;11.102;2023-05-16T11:37:33;8.63;;;2.90;;
27804;SDS011;15183;51.350;11.102;2023-05-16T11:40:04;7.38;;;2.88;;
27804;SDS011;15183;51.350;11.102;2023-05-16T11:42:35;4.88;;;2.22;;
27804;SDS011;15183;51.350;11.102;2023-05-16T11:45:07;5.78;;;2.75;;
27804;SDS011;15183;51.350;11.102;2023-05-16T11:47:37;4.10;;;1.52;;
27804;SDS011;15183;51.350;11.102;2023-05-16T11:50:05;4.03;;;1.10;;
27804;SDS011;15183;51.350;11.102;2023-05-16T11:52:42;7.78;;;2.17;;
27804;SDS011;15183;51.350;11.102;2023-05-16T11:55:11;9.25;;;1.88;;
27804;SDS011;15183;51.350;11.102;2023-05-16T11:57:39;5.60;;;2.13;;
27804;SDS011;15183;51.350;11.102;2023-05-16T12:00:15;4.85;;;1.80;;
27804;SDS011;15183;51.350;11.102;2023-05-16T12:02:44;8.30;;;1.60;;
27804;SDS011;15183;51.350;11.102;2023-05-16T12:05:14;5.45;;;1.50;;
27804;SDS011;15183;51.350;11.102;2023-05-16T12:07:42;5.47;;;1.40;;
27804;SDS011;15183;51.350;11.102;2023-05-16T12:10:12;4.00;;;1.55;;
27804;SDS011;15183;51.350;11.102;2023-05-16T12:12:42;7.82;;;2.28;;
27804;SDS011;15183;51.350;11.102;2023-05-16T12:15:11;6.03;;;2.55;;
27804;SDS011;15183;51.350;11.102;2023-05-16T12:17:39;5.82;;;1.58;;
27804;SDS011;15183;51.350;11.102;2023-05-16T12:20:07;7.70;;;2.85;;
27804;SDS011;15183;51.350;11.102;2023-05-16T12:22:44;6.53;;;2.60;;
27804;SDS011;15183;51.350;11.102;2023-05-16T12:25:19;6.25;;;2.38;;
27804;SDS011;15183;51.350;11.102;2023-05-16T12:27:53;6.97;;;2.10;;
27804;SDS011;15183;51.350;11.102;2023-05-16T12:30:22;7.43;;;2.42;;
27804;SDS011;15183;51.350;11.102;2023-05-16T12:32:57;4.60;;;1.90;;
27804;SDS011;15183;51.350;11.102;2023-05-16T12:35:30;5.53;;;2.35;;
27804;SDS011;15183;51.350;11.102;2023-05-16T12:37:58;7.38;;;2.65;;
27804;SDS011;15183;51.350;11.102;2023-05-16T12:40:30;5.15;;;2.60;;
27804;SDS011;15183;51.350;11.102;2023-05-16T12:42:57;5.32;;;1.90;;
27804;SDS011;15183;51.350;11.102;2023-05-16T12:45:25;6.75;;;2.63;;
27804;SDS011;15183;51.350;11.102;2023-05-16T12:47:52;5.70;;;3.00;;
27804;SDS011;15183;51.350;11.102;2023-05-16T12:50:19;4.88;;;2.25;;
27804;SDS011;15183;51.350;11.102;2023-05-16T12:52:47;5.22;;;1.63;;
27804;SDS011;15183;51.350;11.102;2023-05-16T12:55:20;6.95;;;2.55;;
27804;SDS011;15183;51.350;11.102;2023-05-16T12:57:47;9.18;;;2.47;;
27804;SDS011;15183;51.350;11.102;2023-05-16T13:00:15;7.07;;;2.88;;
27804;SDS011;15183;51.350;11.102;2023-05-16T13:02:44;6.90;;;2.55;;
27804;SDS011;15183;51.350;11.102;2023-05-16T13:05:12;9.05;;;2.92;;
27804;SDS011;15183;51.350;11.102;2023-05-16T13:07:39;6.82;;;2.17;;
27804;SDS011;15183;51.350;11.102;2023-05-16T13:10:09;7.25;;;1.90;;
27804;SDS011;15183;51.350;11.102;2023-05-16T13:12:36;9.88;;;2.85;;
27804;SDS011;15183;51.350;11.102;2023-05-16T13:15:04;6.25;;;2.13;;
27804;SDS011;15183;51.350;11.102;2023-05-16T13:17:33;3.85;;;1.48;;
27804;SDS011;15183;51.350;11.102;2023-05-16T13:20:00;3.90;;;2.35;;
27804;SDS011;15183;51.350;11.102;2023-05-16T13:22:28;7.55;;;2.33;;
27804;SDS011;15183;51.350;11.102;2023-05-16T13:24:54;6.15;;;1.98;;
27804;SDS011;15183;51.350;11.102;2023-05-16T13:27:21;6.68;;;2.00;;
27804;SDS011;15183;51.350;11.102;2023-05-16T13:29:47;8.23;;;2.83;;
27804;SDS011;15183;51.350;11.102;2023-05-16T13:32:13;4.07;;;2.20;;
27804;SDS011;15183;51.350;11.102;2023-05-16T13:34:40;3.90;;;1.20;;
27804;SDS011;15183;51.350;11.102;2023-05-16T13:37:06;2.58;;;1.20;;
27804;SDS011;15183;51.350;11.102;2023-05-16T13:39:33;2.40;;;1.42;;
27804;SDS011;15183;51.350;11.102;2023-05-16T13:41:59;3.83;;;1.27;;
27804;SDS011;15183;51.350;11.102;2023-05-16T13:44:27;4.25;;;1.63;;
27804;SDS011;15183;51.350;11.102;2023-05-16T13:46:54;4.45;;;1.27;;
27804;SDS011;15183;51.350;11.102;2023-05-16T13:49:22;4.72;;;1.10;;
27804;SDS011;15183;51.350;11.102;2023-05-16T13:51:49;5.22;;;0.90;;
27804;SDS011;15183;51.350;11.102;2023-05-16T13:54:17;5.95;;;1.20;;
27804;SDS011;15183;51.350;11.102;2023-05-16T13:56:44;4.20;;;1.45;;
27804;SDS011;15183;51.350;11.102;2023-05-16T13:59:11;3.67;;;1.40;;
27804;SDS011;15183;51.350;11.102;2023-05-16T14:01:37;5.20;;;1.35;;
27804;SDS011;15183;51.350;11.102;2023-05-16T14:04:04;3.53;;;1.10;;
27804;SDS011;15183;51.350;11.102;2023-05-16T14:06:30;7.00;;;1.30;;
27804;SDS011;15183;51.350;11.102;2023-05-16T14:08:57;2.85;;;1.10;;
27804;SDS011;15183;51.350;11.102;2023-05-16T14:11:24;2.67;;;1.20;;
27804;SDS011;15183;51.350;11.102;2023-05-16T14:13:52;4.60;;;0.98;;
27804;SDS011;15183;51.350;11.102;2023-05-16T14:16:19;2.65;;;0.75;;
27804;SDS011;15183;51.350;11.102;2023-05-16T14:18:46;3.13;;;0.88;;
27804;SDS011;15183;51.350;11.102;2023-05-16T14:21:13;3.50;;;1.15;;
27804;SDS011;15183;51.350;11.102;2023-05-16T14:23:39;4.50;;;1.20;;
27804;SDS011;15183;51.350;11.102;2023-05-16T14:26:05;3.22;;;0.85;;
27804;SDS011;15183;51.350;11.102;2023-05-16T14:28:32;3.33;;;0.70;;
27804;SDS011;15183;51.350;11.102;2023-05-16T14:30:59;4.03;;;0.90;;
27804;SDS011;15183;51.350;11.102;2023-05-16T14:33:26;3.10;;;1.08;;
27804;SDS011;15183;51.350;11.102;2023-05-16T14:35:52;2.85;;;0.63;;
27804;SDS011;15183;51.350;11.102;2023-05-16T14:38:19;3.83;;;0.95;;
27804;SDS011;15183;51.350;11.102;2023-05-16T14:40:45;4.22;;;0.68;;
27804;SDS011;15183;51.350;11.102;2023-05-16T14:43:12;2.45;;;0.90;;
27804;SDS011;15183;51.350;11.102;2023-05-16T14:45:38;3.40;;;0.75;;
27804;SDS011;15183;51.350;11.102;2023-05-16T14:48:05;3.72;;;0.90;;
27804;SDS011;15183;51.350;11.102;2023-05-16T14:50:31;2.10;;;0.77;;
27804;SDS011;15183;51.350;11.102;2023-05-16T14:52:58;2.65;;;1.00;;
27804;SDS011;15183;51.350;11.102;2023-05-16T14:55:25;7.60;;;0.95;;
27804;SDS011;15183;51.350;11.102;2023-05-16T14:57:52;4.47;;;1.15;;
27804;SDS011;15183;51.350;11.102;2023-05-16T15:00:21;2.78;;;1.02;;
27804;SDS011;15183;51.350;11.102;2023-05-16T15:02:49;6.22;;;0.90;;
27804;SDS011;15183;51.350;11.102;2023-05-16T15:05:16;3.30;;;1.00;;